Nelson, Canada
Current Conditions -  °F | °C
As of 3:00 PM on Thursday 18 Dec 2014 (Local Time) from CYCG Reporting Station
Haze Haze  
Wind Chill: 30°   Ceiling: 3500
Heat Index: 36°   Visibility: 6mi
Dew Point: 34°   Wind: 7mph
Humidity: 93%   Direction: 160°SSE
Pressure: 29.99"   Gusts: NA
Location:  49.48°N, 117.28°W
Report Text: CYCG 182300Z 16006KT 6SM BR FEW004 SCT025 OVC035 02/01 A2999 RMK SF2SC1SC5 SLP172
Loading
Personal Weather Stations






























Interactive Weather Map New forecast layout! Learn more

10-Day Weather Forecast

Advertisements
Track Severe Weather on mobile